sensor_id;sensor_type;location;lat;lon;timestamp;P1;durP1;ratioP1;P2;durP2;ratioP2
21727;SDS011;11026;50.560;17.852;2023-04-08T00:01:08;64.28;;;33.75;;
21727;SDS011;11026;50.560;17.852;2023-04-08T00:03:35;64.30;;;32.92;;
21727;SDS011;11026;50.560;17.852;2023-04-08T00:06:02;67.72;;;35.13;;
21727;SDS011;11026;50.560;17.852;2023-04-08T00:08:30;68.60;;;36.85;;
21727;SDS011;11026;50.560;17.852;2023-04-08T00:10:58;66.25;;;36.35;;
21727;SDS011;11026;50.560;17.852;2023-04-08T00:13:26;70.75;;;37.92;;
21727;SDS011;11026;50.560;17.852;2023-04-08T00:15:53;64.88;;;34.38;;
21727;SDS011;11026;50.560;17.852;2023-04-08T00:18:22;64.22;;;33.20;;
21727;SDS011;11026;50.560;17.852;2023-04-08T00:20:49;67.40;;;33.90;;
21727;SDS011;11026;50.560;17.852;2023-04-08T00:23:17;64.55;;;33.33;;
21727;SDS011;11026;50.560;17.852;2023-04-08T00:25:45;67.15;;;33.55;;
21727;SDS011;11026;50.560;17.852;2023-04-08T00:28:13;80.00;;;37.85;;
21727;SDS011;11026;50.560;17.852;2023-04-08T00:30:46;78.65;;;37.45;;
21727;SDS011;11026;50.560;17.852;2023-04-08T00:33:14;74.68;;;38.03;;
21727;SDS011;11026;50.560;17.852;2023-04-08T00:35:42;69.30;;;36.20;;
21727;SDS011;11026;50.560;17.852;2023-04-08T00:38:10;70.97;;;34.58;;
21727;SDS011;11026;50.560;17.852;2023-04-08T00:40:37;68.93;;;34.55;;
21727;SDS011;11026;50.560;17.852;2023-04-08T00:43:04;71.00;;;34.50;;
21727;SDS011;11026;50.560;17.852;2023-04-08T00:45:32;68.88;;;35.08;;
21727;SDS011;11026;50.560;17.852;2023-04-08T00:48:00;68.13;;;33.90;;
21727;SDS011;11026;50.560;17.852;2023-04-08T00:50:29;75.38;;;37.53;;
21727;SDS011;11026;50.560;17.852;2023-04-08T00:52:57;72.32;;;36.47;;
21727;SDS011;11026;50.560;17.852;2023-04-08T00:55:24;70.28;;;33.85;;
21727;SDS011;11026;50.560;17.852;2023-04-08T00:57:52;68.90;;;33.63;;
21727;SDS011;11026;50.560;17.852;2023-04-08T01:00:19;76.32;;;35.33;;
21727;SDS011;11026;50.560;17.852;2023-04-08T01:02:50;74.43;;;35.20;;
21727;SDS011;11026;50.560;17.852;2023-04-08T01:08:37;57.78;;;33.63;;
21727;SDS011;11026;50.560;17.852;2023-04-08T01:11:09;66.38;;;36.08;;
21727;SDS011;11026;50.560;17.852;2023-04-08T01:13:40;67.97;;;35.08;;
21727;SDS011;11026;50.560;17.852;2023-04-08T01:16:11;69.63;;;38.58;;
21727;SDS011;11026;50.560;17.852;2023-04-08T01:18:41;65.30;;;38.28;;
21727;SDS011;11026;50.560;17.852;2023-04-08T01:21:10;66.50;;;37.20;;
21727;SDS011;11026;50.560;17.852;2023-04-08T01:24:22;65.78;;;37.33;;
21727;SDS011;11026;50.560;17.852;2023-04-08T01:26:43;66.70;;;37.58;;
21727;SDS011;11026;50.560;17.852;2023-04-08T01:29:19;66.05;;;38.60;;
21727;SDS011;11026;50.560;17.852;2023-04-08T01:31:49;63.22;;;36.65;;
21727;SDS011;11026;50.560;17.852;2023-04-08T01:34:17;58.25;;;35.78;;
21727;SDS011;11026;50.560;17.852;2023-04-08T01:36:47;54.65;;;34.22;;
21727;SDS011;11026;50.560;17.852;2023-04-08T01:39:15;55.90;;;35.08;;
21727;SDS011;11026;50.560;17.852;2023-04-08T01:41:45;59.00;;;33.83;;
21727;SDS011;11026;50.560;17.852;2023-04-08T01:44:13;55.42;;;34.55;;
21727;SDS011;11026;50.560;17.852;2023-04-08T01:46:43;54.22;;;33.30;;
21727;SDS011;11026;50.560;17.852;2023-04-08T01:49:10;54.03;;;34.28;;
21727;SDS011;11026;50.560;17.852;2023-04-08T01:51:38;52.40;;;31.75;;
21727;SDS011;11026;50.560;17.852;2023-04-08T01:54:06;56.30;;;33.50;;
21727;SDS011;11026;50.560;17.852;2023-04-08T01:56:35;53.03;;;33.33;;
21727;SDS011;11026;50.560;17.852;2023-04-08T01:59:05;54.00;;;34.03;;
21727;SDS011;11026;50.560;17.852;2023-04-08T02:01:40;50.47;;;33.67;;
21727;SDS011;11026;50.560;17.852;2023-04-08T02:04:11;56.10;;;34.53;;
21727;SDS011;11026;50.560;17.852;2023-04-08T02:06:39;55.08;;;34.33;;
21727;SDS011;11026;50.560;17.852;2023-04-08T02:09:07;54.58;;;34.13;;
21727;SDS011;11026;50.560;17.852;2023-04-08T02:11:34;50.45;;;32.45;;
21727;SDS011;11026;50.560;17.852;2023-04-08T02:14:02;53.13;;;33.85;;
21727;SDS011;11026;50.560;17.852;2023-04-08T02:16:33;50.70;;;32.67;;
21727;SDS011;11026;50.560;17.852;2023-04-08T02:19:31;49.08;;;32.42;;
21727;SDS011;11026;50.560;17.852;2023-04-08T02:22:29;48.35;;;31.88;;
21727;SDS011;11026;50.560;17.852;2023-04-08T02:25:17;50.45;;;33.28;;
21727;SDS011;11026;50.560;17.852;2023-04-08T02:27:53;51.17;;;32.67;;
21727;SDS011;11026;50.560;17.852;2023-04-08T02:30:24;51.25;;;33.22;;
21727;SDS011;11026;50.560;17.852;2023-04-08T02:32:53;51.97;;;33.60;;
21727;SDS011;11026;50.560;17.852;2023-04-08T02:35:22;50.22;;;33.03;;
21727;SDS011;11026;50.560;17.852;2023-04-08T02:37:50;54.83;;;35.05;;
21727;SDS011;11026;50.560;17.852;2023-04-08T02:40:26;49.20;;;34.17;;
21727;SDS011;11026;50.560;17.852;2023-04-08T02:42:55;47.45;;;32.72;;
21727;SDS011;11026;50.560;17.852;2023-04-08T02:45:34;48.33;;;33.50;;
21727;SDS011;11026;50.560;17.852;2023-04-08T02:48:09;52.78;;;33.25;;
21727;SDS011;11026;50.560;17.852;2023-04-08T02:50:36;47.72;;;32.72;;
21727;SDS011;11026;50.560;17.852;2023-04-08T02:53:07;48.97;;;34.08;;
21727;SDS011;11026;50.560;17.852;2023-04-08T02:55:35;50.35;;;33.75;;
21727;SDS011;11026;50.560;17.852;2023-04-08T02:58:03;46.85;;;32.45;;
21727;SDS011;11026;50.560;17.852;2023-04-08T03:00:31;47.47;;;32.78;;
21727;SDS011;11026;50.560;17.852;2023-04-08T03:02:58;45.65;;;31.45;;
21727;SDS011;11026;50.560;17.852;2023-04-08T03:05:27;49.63;;;32.78;;
21727;SDS011;11026;50.560;17.852;2023-04-08T03:07:54;45.00;;;31.55;;
21727;SDS011;11026;50.560;17.852;2023-04-08T03:10:22;44.33;;;31.92;;
21727;SDS011;11026;50.560;17.852;2023-04-08T03:12:50;43.47;;;31.08;;
21727;SDS011;11026;50.560;17.852;2023-04-08T03:15:18;41.92;;;30.88;;
21727;SDS011;11026;50.560;17.852;2023-04-08T03:17:45;43.78;;;31.52;;
21727;SDS011;11026;50.560;17.852;2023-04-08T03:20:14;48.67;;;33.83;;
21727;SDS011;11026;50.560;17.852;2023-04-08T03:22:41;45.70;;;33.30;;
21727;SDS011;11026;50.560;17.852;2023-04-08T03:25:09;49.88;;;35.20;;
21727;SDS011;11026;50.560;17.852;2023-04-08T03:27:37;49.72;;;35.67;;
21727;SDS011;11026;50.560;17.852;2023-04-08T03:30:11;53.50;;;36.05;;
21727;SDS011;11026;50.560;17.852;2023-04-08T03:32:40;53.90;;;37.10;;
21727;SDS011;11026;50.560;17.852;2023-04-08T03:35:14;54.13;;;36.83;;
21727;SDS011;11026;50.560;17.852;2023-04-08T03:37:41;47.13;;;33.90;;
21727;SDS011;11026;50.560;17.852;2023-04-08T03:40:09;45.65;;;32.40;;
21727;SDS011;11026;50.560;17.852;2023-04-08T03:42:37;46.72;;;32.95;;
21727;SDS011;11026;50.560;17.852;2023-04-08T03:45:04;43.47;;;31.08;;
21727;SDS011;11026;50.560;17.852;2023-04-08T03:47:32;47.35;;;31.15;;
21727;SDS011;11026;50.560;17.852;2023-04-08T03:50:02;49.03;;;32.88;;
21727;SDS011;11026;50.560;17.852;2023-04-08T03:52:29;47.05;;;33.25;;
21727;SDS011;11026;50.560;17.852;2023-04-08T03:54:57;48.22;;;34.40;;
21727;SDS011;11026;50.560;17.852;2023-04-08T03:57:24;49.15;;;33.22;;
21727;SDS011;11026;50.560;17.852;2023-04-08T04:02:24;47.38;;;29.77;;
21727;SDS011;11026;50.560;17.852;2023-04-08T04:04:51;42.72;;;27.42;;
21727;SDS011;11026;50.560;17.852;2023-04-08T04:07:18;43.60;;;28.38;;
21727;SDS011;11026;50.560;17.852;2023-04-08T04:09:48;39.88;;;26.20;;
21727;SDS011;11026;50.560;17.852;2023-04-08T04:14:47;35.88;;;23.23;;
21727;SDS011;11026;50.560;17.852;2023-04-08T04:17:14;34.10;;;22.52;;
21727;SDS011;11026;50.560;17.852;2023-04-08T04:19:42;33.35;;;21.48;;
21727;SDS011;11026;50.560;17.852;2023-04-08T04:22:09;33.35;;;23.05;;
21727;SDS011;11026;50.560;17.852;2023-04-08T04:24:37;37.15;;;23.02;;
21727;SDS011;11026;50.560;17.852;2023-04-08T04:27:05;37.47;;;24.65;;
21727;SDS011;11026;50.560;17.852;2023-04-08T04:29:32;38.38;;;24.00;;
21727;SDS011;11026;50.560;17.852;2023-04-08T04:31:59;33.80;;;22.88;;
21727;SDS011;11026;50.560;17.852;2023-04-08T04:34:27;39.53;;;25.85;;
21727;SDS011;11026;50.560;17.852;2023-04-08T04:36:54;37.13;;;25.15;;
21727;SDS011;11026;50.560;17.852;2023-04-08T04:39:22;35.75;;;23.77;;
21727;SDS011;11026;50.560;17.852;2023-04-08T04:41:49;39.58;;;24.27;;
21727;SDS011;11026;50.560;17.852;2023-04-08T04:44:17;39.17;;;24.98;;
21727;SDS011;11026;50.560;17.852;2023-04-08T04:46:45;37.67;;;25.15;;
21727;SDS011;11026;50.560;17.852;2023-04-08T04:49:13;38.63;;;23.95;;
21727;SDS011;11026;50.560;17.852;2023-04-08T04:51:40;38.55;;;26.48;;
21727;SDS011;11026;50.560;17.852;2023-04-08T04:54:08;34.47;;;24.52;;
21727;SDS011;11026;50.560;17.852;2023-04-08T04:56:35;40.25;;;26.02;;
21727;SDS011;11026;50.560;17.852;2023-04-08T04:59:02;35.75;;;25.45;;
21727;SDS011;11026;50.560;17.852;2023-04-08T05:01:33;41.10;;;27.08;;
21727;SDS011;11026;50.560;17.852;2023-04-08T05:04:01;38.72;;;26.13;;
21727;SDS011;11026;50.560;17.852;2023-04-08T05:06:29;39.72;;;27.45;;
21727;SDS011;11026;50.560;17.852;2023-04-08T05:08:59;40.42;;;27.20;;
21727;SDS011;11026;50.560;17.852;2023-04-08T05:11:27;40.70;;;27.38;;
21727;SDS011;11026;50.560;17.852;2023-04-08T05:13:55;41.22;;;27.75;;
21727;SDS011;11026;50.560;17.852;2023-04-08T05:16:22;41.25;;;27.55;;
21727;SDS011;11026;50.560;17.852;2023-04-08T05:18:51;41.83;;;27.75;;
21727;SDS011;11026;50.560;17.852;2023-04-08T05:21:19;37.22;;;26.45;;
21727;SDS011;11026;50.560;17.852;2023-04-08T05:23:48;37.63;;;26.02;;
21727;SDS011;11026;50.560;17.852;2023-04-08T05:26:19;36.08;;;25.75;;
21727;SDS011;11026;50.560;17.852;2023-04-08T05:28:48;36.10;;;24.65;;
21727;SDS011;11026;50.560;17.852;2023-04-08T05:31:29;35.45;;;26.20;;
21727;SDS011;11026;50.560;17.852;2023-04-08T05:33:57;40.40;;;27.73;;
21727;SDS011;11026;50.560;17.852;2023-04-08T05:36:24;38.38;;;26.55;;
21727;SDS011;11026;50.560;17.852;2023-04-08T05:38:52;39.88;;;28.05;;
21727;SDS011;11026;50.560;17.852;2023-04-08T05:41:22;36.38;;;26.95;;
21727;SDS011;11026;50.560;17.852;2023-04-08T05:43:50;34.95;;;25.75;;
21727;SDS011;11026;50.560;17.852;2023-04-08T05:46:17;37.42;;;26.65;;
21727;SDS011;11026;50.560;17.852;2023-04-08T05:48:44;39.13;;;27.02;;
21727;SDS011;11026;50.560;17.852;2023-04-08T05:51:15;36.00;;;26.42;;
21727;SDS011;11026;50.560;17.852;2023-04-08T05:53:46;39.45;;;27.85;;
21727;SDS011;11026;50.560;17.852;2023-04-08T05:56:20;37.92;;;25.17;;
21727;SDS011;11026;50.560;17.852;2023-04-08T05:58:48;37.33;;;25.85;;
21727;SDS011;11026;50.560;17.852;2023-04-08T06:01:16;36.13;;;26.20;;
21727;SDS011;11026;50.560;17.852;2023-04-08T06:03:44;35.08;;;24.70;;
21727;SDS011;11026;50.560;17.852;2023-04-08T06:06:11;36.35;;;25.15;;
21727;SDS011;11026;50.560;17.852;2023-04-08T06:08:39;35.45;;;24.63;;
21727;SDS011;11026;50.560;17.852;2023-04-08T06:11:06;40.25;;;27.48;;
21727;SDS011;11026;50.560;17.852;2023-04-08T06:13:36;39.83;;;27.17;;
21727;SDS011;11026;50.560;17.852;2023-04-08T06:16:12;39.95;;;26.52;;
21727;SDS011;11026;50.560;17.852;2023-04-08T06:18:40;40.92;;;28.92;;
21727;SDS011;11026;50.560;17.852;2023-04-08T06:21:10;41.63;;;28.83;;
21727;SDS011;11026;50.560;17.852;2023-04-08T06:23:37;39.20;;;27.77;;
21727;SDS011;11026;50.560;17.852;2023-04-08T06:26:04;42.03;;;27.75;;
21727;SDS011;11026;50.560;17.852;2023-04-08T06:28:32;43.35;;;28.27;;
21727;SDS011;11026;50.560;17.852;2023-04-08T06:30:59;40.45;;;27.40;;
21727;SDS011;11026;50.560;17.852;2023-04-08T06:33:26;43.50;;;29.52;;
21727;SDS011;11026;50.560;17.852;2023-04-08T06:36:01;44.00;;;30.60;;
21727;SDS011;11026;50.560;17.852;2023-04-08T06:38:30;42.88;;;28.75;;
21727;SDS011;11026;50.560;17.852;2023-04-08T06:41:04;38.95;;;27.15;;
21727;SDS011;11026;50.560;17.852;2023-04-08T06:43:38;34.75;;;24.30;;
21727;SDS011;11026;50.560;17.852;2023-04-08T06:46:08;34.25;;;23.83;;
21727;SDS011;11026;50.560;17.852;2023-04-08T06:48:35;35.33;;;23.77;;
21727;SDS011;11026;50.560;17.852;2023-04-08T06:51:05;33.58;;;23.70;;
21727;SDS011;11026;50.560;17.852;2023-04-08T06:53:33;31.08;;;23.52;;
21727;SDS011;11026;50.560;17.852;2023-04-08T06:56:01;36.78;;;24.40;;
21727;SDS011;11026;50.560;17.852;2023-04-08T06:58:28;36.78;;;24.83;;
21727;SDS011;11026;50.560;17.852;2023-04-08T07:00:58;33.42;;;23.58;;
21727;SDS011;11026;50.560;17.852;2023-04-08T07:03:27;35.47;;;23.55;;
21727;SDS011;11026;50.560;17.852;2023-04-08T07:05:55;33.80;;;23.42;;
21727;SDS011;11026;50.560;17.852;2023-04-08T07:08:22;33.42;;;23.65;;
21727;SDS011;11026;50.560;17.852;2023-04-08T07:10:51;33.42;;;23.58;;
21727;SDS011;11026;50.560;17.852;2023-04-08T07:13:19;35.78;;;25.17;;
21727;SDS011;11026;50.560;17.852;2023-04-08T07:15:47;32.35;;;23.48;;
21727;SDS011;11026;50.560;17.852;2023-04-08T07:18:16;30.77;;;22.23;;
21727;SDS011;11026;50.560;17.852;2023-04-08T07:20:50;31.15;;;22.10;;
21727;SDS011;11026;50.560;17.852;2023-04-08T07:23:19;35.53;;;23.35;;
21727;SDS011;11026;50.560;17.852;2023-04-08T07:25:47;28.23;;;20.20;;
21727;SDS011;11026;50.560;17.852;2023-04-08T07:28:16;31.58;;;19.67;;
21727;SDS011;11026;50.560;17.852;2023-04-08T07:30:43;30.30;;;20.33;;
21727;SDS011;11026;50.560;17.852;2023-04-08T07:33:11;35.63;;;21.70;;
21727;SDS011;11026;50.560;17.852;2023-04-08T07:35:39;29.27;;;20.70;;
21727;SDS011;11026;50.560;17.852;2023-04-08T07:38:08;29.77;;;19.83;;
21727;SDS011;11026;50.560;17.852;2023-04-08T07:40:38;33.33;;;20.85;;
21727;SDS011;11026;50.560;17.852;2023-04-08T07:43:06;26.15;;;19.23;;
21727;SDS011;11026;50.560;17.852;2023-04-08T07:45:35;27.90;;;19.13;;
21727;SDS011;11026;50.560;17.852;2023-04-08T07:48:02;25.17;;;18.55;;
21727;SDS011;11026;50.560;17.852;2023-04-08T07:50:30;25.23;;;18.77;;
21727;SDS011;11026;50.560;17.852;2023-04-08T07:52:57;27.65;;;19.48;;
21727;SDS011;11026;50.560;17.852;2023-04-08T07:55:25;30.90;;;21.88;;
21727;SDS011;11026;50.560;17.852;2023-04-08T07:57:58;30.23;;;20.15;;
21727;SDS011;11026;50.560;17.852;2023-04-08T08:00:25;31.73;;;21.35;;
21727;SDS011;11026;50.560;17.852;2023-04-08T08:02:53;30.52;;;21.20;;
21727;SDS011;11026;50.560;17.852;2023-04-08T08:05:20;31.13;;;21.27;;
21727;SDS011;11026;50.560;17.852;2023-04-08T08:07:48;23.58;;;18.58;;
21727;SDS011;11026;50.560;17.852;2023-04-08T08:10:17;26.98;;;18.90;;
21727;SDS011;11026;50.560;17.852;2023-04-08T08:12:45;24.95;;;18.40;;
21727;SDS011;11026;50.560;17.852;2023-04-08T08:15:13;26.92;;;19.23;;
21727;SDS011;11026;50.560;17.852;2023-04-08T08:17:40;25.48;;;18.38;;
21727;SDS011;11026;50.560;17.852;2023-04-08T08:20:08;24.45;;;17.17;;
21727;SDS011;11026;50.560;17.852;2023-04-08T08:22:38;23.48;;;17.48;;
21727;SDS011;11026;50.560;17.852;2023-04-08T08:25:23;24.33;;;17.35;;
21727;SDS011;11026;50.560;17.852;2023-04-08T08:27:51;23.17;;;18.23;;
21727;SDS011;11026;50.560;17.852;2023-04-08T08:30:20;25.10;;;17.55;;
21727;SDS011;11026;50.560;17.852;2023-04-08T08:32:50;23.55;;;17.92;;
21727;SDS011;11026;50.560;17.852;2023-04-08T08:35:19;25.90;;;18.05;;
21727;SDS011;11026;50.560;17.852;2023-04-08T08:37:46;24.17;;;18.75;;
21727;SDS011;11026;50.560;17.852;2023-04-08T08:40:15;26.27;;;18.25;;
21727;SDS011;11026;50.560;17.852;2023-04-08T08:42:48;24.52;;;18.50;;
21727;SDS011;11026;50.560;17.852;2023-04-08T08:45:20;23.83;;;17.65;;
21727;SDS011;11026;50.560;17.852;2023-04-08T08:47:50;20.17;;;16.25;;
21727;SDS011;11026;50.560;17.852;2023-04-08T08:50:17;20.58;;;16.05;;
21727;SDS011;11026;50.560;17.852;2023-04-08T08:52:51;22.23;;;16.83;;
21727;SDS011;11026;50.560;17.852;2023-04-08T08:58:12;20.70;;;15.65;;
21727;SDS011;11026;50.560;17.852;2023-04-08T09:00:46;21.70;;;16.23;;
21727;SDS011;11026;50.560;17.852;2023-04-08T09:03:20;22.15;;;16.25;;
21727;SDS011;11026;50.560;17.852;2023-04-08T09:10:55;22.42;;;17.50;;
21727;SDS011;11026;50.560;17.852;2023-04-08T09:13:49;20.50;;;15.73;;
21727;SDS011;11026;50.560;17.852;2023-04-08T09:16:19;20.83;;;15.93;;
21727;SDS011;11026;50.560;17.852;2023-04-08T09:18:48;23.95;;;18.65;;
21727;SDS011;11026;50.560;17.852;2023-04-08T09:21:16;19.90;;;15.10;;
21727;SDS011;11026;50.560;17.852;2023-04-08T09:23:49;18.38;;;14.85;;
21727;SDS011;11026;50.560;17.852;2023-04-08T09:26:22;21.38;;;16.25;;
21727;SDS011;11026;50.560;17.852;2023-04-08T09:29:06;21.73;;;16.20;;
21727;SDS011;11026;50.560;17.852;2023-04-08T09:31:57;18.63;;;14.43;;
21727;SDS011;11026;50.560;17.852;2023-04-08T09:34:26;18.67;;;14.43;;
21727;SDS011;11026;50.560;17.852;2023-04-08T09:36:55;19.50;;;14.30;;
21727;SDS011;11026;50.560;17.852;2023-04-08T09:39:22;21.33;;;15.30;;
21727;SDS011;11026;50.560;17.852;2023-04-08T09:41:50;23.63;;;16.23;;
21727;SDS011;11026;50.560;17.852;2023-04-08T09:44:20;24.55;;;15.85;;
21727;SDS011;11026;50.560;17.852;2023-04-08T09:52:07;21.05;;;15.55;;
21727;SDS011;11026;50.560;17.852;2023-04-08T09:54:41;18.02;;;14.05;;
21727;SDS011;11026;50.560;17.852;2023-04-08T09:57:40;22.52;;;16.23;;
21727;SDS011;11026;50.560;17.852;2023-04-08T10:00:13;20.10;;;15.18;;
21727;SDS011;11026;50.560;17.852;2023-04-08T10:05:39;18.98;;;14.63;;
21727;SDS011;11026;50.560;17.852;2023-04-08T10:08:09;19.50;;;14.50;;
21727;SDS011;11026;50.560;17.852;2023-04-08T10:10:38;18.98;;;14.15;;
21727;SDS011;11026;50.560;17.852;2023-04-08T10:13:07;27.00;;;17.63;;
21727;SDS011;11026;50.560;17.852;2023-04-08T10:15:35;26.90;;;16.73;;
21727;SDS011;11026;50.560;17.852;2023-04-08T10:23:10;17.85;;;14.27;;
21727;SDS011;11026;50.560;17.852;2023-04-08T10:25:47;20.05;;;15.27;;
21727;SDS011;11026;50.560;17.852;2023-04-08T10:30:51;23.48;;;16.55;;
21727;SDS011;11026;50.560;17.852;2023-04-08T10:33:33;18.08;;;14.63;;
21727;SDS011;11026;50.560;17.852;2023-04-08T10:36:12;21.98;;;16.23;;
21727;SDS011;11026;50.560;17.852;2023-04-08T10:38:42;15.45;;;13.25;;
21727;SDS011;11026;50.560;17.852;2023-04-08T10:41:09;15.27;;;12.55;;
21727;SDS011;11026;50.560;17.852;2023-04-08T10:43:40;16.63;;;13.40;;
21727;SDS011;11026;50.560;17.852;2023-04-08T10:46:09;18.70;;;14.13;;
21727;SDS011;11026;50.560;17.852;2023-04-08T10:48:37;15.82;;;13.15;;
21727;SDS011;11026;50.560;17.852;2023-04-08T10:51:05;16.73;;;13.77;;
21727;SDS011;11026;50.560;17.852;2023-04-08T10:53:33;15.38;;;12.20;;
21727;SDS011;11026;50.560;17.852;2023-04-08T10:56:14;16.52;;;13.52;;
21727;SDS011;11026;50.560;17.852;2023-04-08T10:58:47;17.13;;;14.25;;
21727;SDS011;11026;50.560;17.852;2023-04-08T11:01:15;24.02;;;19.45;;
21727;SDS011;11026;50.560;17.852;2023-04-08T11:03:43;22.10;;;18.13;;
21727;SDS011;11026;50.560;17.852;2023-04-08T11:06:11;17.83;;;14.07;;
21727;SDS011;11026;50.560;17.852;2023-04-08T11:08:39;17.20;;;14.10;;
21727;SDS011;11026;50.560;17.852;2023-04-08T11:11:08;22.45;;;15.15;;
21727;SDS011;11026;50.560;17.852;2023-04-08T11:13:41;18.33;;;13.95;;
21727;SDS011;11026;50.560;17.852;2023-04-08T11:16:20;20.40;;;16.90;;
21727;SDS011;11026;50.560;17.852;2023-04-08T11:18:49;21.38;;;15.30;;
21727;SDS011;11026;50.560;17.852;2023-04-08T11:21:19;19.27;;;14.30;;
21727;SDS011;11026;50.560;17.852;2023-04-08T11:23:52;18.55;;;12.95;;
21727;SDS011;11026;50.560;17.852;2023-04-08T11:26:22;14.65;;;11.63;;
21727;SDS011;11026;50.560;17.852;2023-04-08T11:28:52;18.63;;;13.40;;
21727;SDS011;11026;50.560;17.852;2023-04-08T11:31:21;13.32;;;11.73;;
21727;SDS011;11026;50.560;17.852;2023-04-08T11:33:51;13.35;;;11.95;;
21727;SDS011;11026;50.560;17.852;2023-04-08T11:36:20;13.38;;;11.75;;
21727;SDS011;11026;50.560;17.852;2023-04-08T11:38:48;14.38;;;11.77;;
21727;SDS011;11026;50.560;17.852;2023-04-08T11:41:23;15.45;;;13.77;;
21727;SDS011;11026;50.560;17.852;2023-04-08T11:43:54;13.23;;;10.40;;
21727;SDS011;11026;50.560;17.852;2023-04-08T11:46:23;11.13;;;10.02;;
21727;SDS011;11026;50.560;17.852;2023-04-08T11:49:02;13.50;;;11.38;;
21727;SDS011;11026;50.560;17.852;2023-04-08T11:51:52;15.35;;;12.95;;
21727;SDS011;11026;50.560;17.852;2023-04-08T11:54:28;10.82;;;9.73;;
21727;SDS011;11026;50.560;17.852;2023-04-08T11:56:57;10.05;;;9.05;;
21727;SDS011;11026;50.560;17.852;2023-04-08T11:59:25;11.77;;;10.25;;
21727;SDS011;11026;50.560;17.852;2023-04-08T12:01:55;10.60;;;9.50;;
21727;SDS011;11026;50.560;17.852;2023-04-08T12:04:23;15.60;;;12.00;;
21727;SDS011;11026;50.560;17.852;2023-04-08T12:06:51;12.90;;;10.70;;
21727;SDS011;11026;50.560;17.852;2023-04-08T12:09:18;14.07;;;10.93;;
21727;SDS011;11026;50.560;17.852;2023-04-08T12:11:51;16.77;;;12.70;;
21727;SDS011;11026;50.560;17.852;2023-04-08T12:14:18;18.27;;;13.52;;
21727;SDS011;11026;50.560;17.852;2023-04-08T12:16:47;19.05;;;14.82;;
21727;SDS011;11026;50.560;17.852;2023-04-08T12:19:15;32.38;;;21.38;;
21727;SDS011;11026;50.560;17.852;2023-04-08T12:21:42;14.05;;;12.55;;
21727;SDS011;11026;50.560;17.852;2023-04-08T12:24:10;17.35;;;13.90;;
21727;SDS011;11026;50.560;17.852;2023-04-08T12:26:37;15.30;;;13.70;;
21727;SDS011;11026;50.560;17.852;2023-04-08T12:29:05;25.92;;;17.95;;
21727;SDS011;11026;50.560;17.852;2023-04-08T12:31:37;18.40;;;14.75;;
21727;SDS011;11026;50.560;17.852;2023-04-08T12:34:04;29.98;;;19.67;;
21727;SDS011;11026;50.560;17.852;2023-04-08T12:36:32;22.90;;;17.30;;
21727;SDS011;11026;50.560;17.852;2023-04-08T12:39:01;27.05;;;19.83;;
21727;SDS011;11026;50.560;17.852;2023-04-08T12:41:28;19.50;;;15.25;;
21727;SDS011;11026;50.560;17.852;2023-04-08T12:43:57;19.20;;;14.15;;
21727;SDS011;11026;50.560;17.852;2023-04-08T12:46:24;20.73;;;14.75;;
21727;SDS011;11026;50.560;17.852;2023-04-08T12:48:58;14.52;;;12.48;;
21727;SDS011;11026;50.560;17.852;2023-04-08T12:51:30;13.95;;;11.77;;
